Terminal Aerodrome Forecast
Issued by NWS

Home | Current Version | Previous Version | Text Only | Print | Product List | Glossary On
Versions: 1 2 3 4 5 6 7 8 9 10 11 12 13 14 15 16 17 18 19 20 21 22 23
405
FTUS43 KDLH 062336
TAFHYR
TAF
KHYR 062336Z 0700/0724 19013KT P6SM BKN070 WS020/24040KT
     FM070300 23010KT 3SM -SN OVC025
     FM070600 21008KT 2SM -SN OVC015
     FM071500 23008KT 3SM -SN OVC015
     FM072100 26012KT 4SM -SN OVC015=

USA.gov is the U.S. government's official web portal to all federal, state and local government web resources and services.